Time;durP1;ratioP1;P1;durP2;ratioP2;P2;SDS_P1;SDS_P2;PMS_P1;PMS_P2;Temp;Humidity;BMP_temperature;BMP_pressure;BME280_temperature;BME280_humidity;BME280_pressure;Samples;Min_cycle;Max_cycle;Signal;HPM_P1;HPM_P2
2023/12/24 00:01:19;;;;;;;5.57;2.92;;;;;;;9.06;100.00;100841.19;6155255;23;20436;-78
2023/12/24 00:03:45;;;;;;;6.78;3.58;;;;;;;9.07;100.00;100842.84;6155181;23;20053;-78
2023/12/24 00:06:10;;;;;;;6.97;3.33;;;;;;;9.26;100.00;100871.78;6155226;23;20380;-78
2023/12/24 00:08:36;;;;;;;6.97;3.40;;;;;;;9.17;100.00;100856.84;6155181;23;20002;-76
2023/12/24 00:11:01;;;;;;;6.65;3.63;;;;;;;9.12;100.00;100835.66;6155133;23;20001;-78
2023/12/24 00:13:28;;;;;;;8.20;4.28;;;;;;;9.29;100.00;100878.50;6153026;23;20013;-79
2023/12/24 00:15:53;;;;;;;12.40;4.80;;;;;;;9.13;100.00;100847.63;6155298;23;20033;-81
2023/12/24 00:18:19;;;;;;;7.40;4.95;;;;;;;9.12;100.00;100851.13;6154904;23;20005;-77
2023/12/24 00:20:45;;;;;;;7.25;4.63;;;;;;;9.34;100.00;100886.81;6155066;23;20005;-76
2023/12/24 00:23:11;;;;;;;10.63;5.40;;;;;;;9.32;100.00;100878.34;6104394;23;20010;-79
2023/12/24 00:25:40;;;;;;;8.60;4.95;;;;;;;9.32;100.00;100873.19;6155234;23;20064;-77
2023/12/24 00:28:06;;;;;;;10.95;6.03;;;;;;;9.27;100.00;100870.88;6155047;23;20001;-77
2023/12/24 00:30:32;;;;;;;8.43;5.07;;;;;;;9.20;100.00;100831.72;6154760;23;20440;-79
2023/12/24 00:32:59;;;;;;;8.88;4.70;;;;;;;9.35;100.00;100857.56;6154971;23;20001;-76
2023/12/24 00:35:26;;;;;;;7.88;4.88;;;;;;;9.33;100.00;100839.59;6155462;23;20001;-77
2023/12/24 00:37:51;;;;;;;6.82;4.07;;;;;;;9.35;100.00;100839.53;6155334;23;20052;-76
2023/12/24 00:40:18;;;;;;;7.53;3.83;;;;;;;9.20;100.00;100813.69;6155122;23;20010;-76
2023/12/24 00:42:43;;;;;;;7.38;3.88;;;;;;;9.25;100.00;100821.19;6154823;23;20052;-78
2023/12/24 00:45:10;;;;;;;4.93;3.15;;;;;;;9.33;100.00;100813.81;6154987;23;19997;-77
2023/12/24 00:47:35;;;;;;;5.78;3.45;;;;;;;9.15;100.00;100777.09;6154586;23;20002;-76
2023/12/24 00:50:01;;;;;;;4.25;2.80;;;;;;;9.33;100.00;100790.63;6154873;23;20036;-77
2023/12/24 00:52:26;;;;;;;6.32;2.88;;;;;;;8.52;100.00;100655.41;6155312;23;20005;-77
2023/12/24 00:54:51;;;;;;;6.90;2.80;;;;;;;9.14;100.00;100749.66;6154687;23;20309;-79
2023/12/24 00:57:17;;;;;;;8.85;2.72;;;;;;;9.13;100.00;100742.81;6155238;23;20006;-76
2023/12/24 00:59:42;;;;;;;3.72;2.20;;;;;;;8.85;100.00;100689.53;6154490;23;20001;-76
2023/12/24 01:02:07;;;;;;;5.47;2.42;;;;;;;9.21;100.00;100737.22;6154534;23;20006;-77
2023/12/24 01:04:33;;;;;;;4.40;2.35;;;;;;;9.19;100.00;100728.78;6154826;23;19998;-76
2023/12/24 01:06:59;;;;;;;4.30;1.88;;;;;;;9.17;100.00;100722.88;6155361;23;20032;-77
2023/12/24 01:09:25;;;;;;;7.50;1.92;;;;;;;9.08;100.00;100695.09;6155303;23;20005;-77
2023/12/24 01:11:50;;;;;;;7.65;1.85;;;;;;;9.27;100.00;100731.72;6155182;23;20392;-77
2023/12/24 01:14:15;;;;;;;6.00;2.10;;;;;;;9.08;100.00;100706.22;6154429;23;20061;-76
2023/12/24 01:16:41;;;;;;;5.88;2.00;;;;;;;9.25;100.00;100732.75;6155084;23;20012;-76
2023/12/24 01:19:07;;;;;;;6.45;1.88;;;;;;;9.26;100.00;100732.66;6154675;23;20432;-77
2023/12/24 01:21:32;;;;;;;8.68;2.60;;;;;;;9.27;100.00;100736.88;6154878;23;20005;-77
2023/12/24 01:23:57;;;;;;;5.78;2.45;;;;;;;9.31;100.00;100735.78;6154879;23;20002;-77
2023/12/24 01:26:22;;;;;;;7.15;2.70;;;;;;;9.08;100.00;100706.22;6154824;23;20001;-77
2023/12/24 01:28:48;;;;;;;9.88;2.97;;;;;;;9.18;100.00;100727.94;6154746;23;20006;-76
2023/12/24 01:31:13;;;;;;;6.20;2.65;;;;;;;9.29;100.00;100729.06;6154750;23;20006;-78
2023/12/24 01:33:39;;;;;;;8.57;2.95;;;;;;;9.22;100.00;100718.28;6154786;23;20009;-78
2023/12/24 01:36:04;;;;;;;9.43;3.13;;;;;;;9.30;100.00;100723.81;6156159;23;20371;-79
2023/12/24 01:38:30;;;;;;;8.00;3.35;;;;;;;9.30;100.00;100728.13;6156769;23;20017;-76
2023/12/24 01:40:55;;;;;;;9.38;3.40;;;;;;;9.29;100.00;100734.22;6156551;23;20009;-77
2023/12/24 01:43:20;;;;;;;8.02;3.33;;;;;;;8.92;100.00;100682.25;6156160;23;20009;-77
2023/12/24 01:45:46;;;;;;;9.18;3.33;;;;;;;9.20;100.00;100728.69;6156363;23;20005;-77
2023/12/24 01:48:16;;;;;;;9.35;3.47;;;;;;;9.02;100.00;100710.88;6156359;23;20005;-78
2023/12/24 01:50:45;;;;;;;8.48;4.53;;;;;;;9.00;100.00;100710.97;6156667;23;20010;-77
2023/12/24 01:53:11;;;;;;;14.43;4.55;;;;;;;9.12;100.00;100730.03;6156078;23;20447;-78
2023/12/24 01:55:37;;;;;;;9.05;4.10;;;;;;;9.15;100.00;100741.00;6156376;23;20006;-77
2023/12/24 01:58:03;;;;;;;9.70;4.57;;;;;;;9.11;100.00;100731.78;6156279;23;20006;-78
2023/12/24 02:00:29;;;;;;;9.40;4.40;;;;;;;8.75;100.00;100698.72;6130397;23;20010;-78
2023/12/24 02:02:55;;;;;;;9.30;4.60;;;;;;;8.96;100.00;100737.03;6156604;23;20068;-77
2023/12/24 02:05:21;;;;;;;10.32;4.20;;;;;;;9.00;100.00;100741.88;6156191;23;20012;-77
2023/12/24 02:07:47;;;;;;;10.68;4.22;;;;;;;8.97;100.00;100738.69;6156175;23;20001;-77
2023/12/24 02:10:13;;;;;;;9.88;4.57;;;;;;;8.95;100.00;100740.47;6156036;23;20076;-78
2023/12/24 02:12:38;;;;;;;11.00;4.88;;;;;;;8.58;100.00;100670.53;6156206;23;20084;-77
2023/12/24 02:15:05;;;;;;;11.80;4.78;;;;;;;8.79;100.00;100705.31;6155841;23;20012;-79
2023/12/24 02:17:32;;;;;;;10.50;4.85;;;;;;;8.91;100.00;100726.97;6156091;23;20506;-79
2023/12/24 02:19:57;;;;;;;11.57;5.70;;;;;;;8.88;100.00;100720.25;6156153;23;20006;-77
2023/12/24 02:22:23;;;;;;;10.55;5.15;;;;;;;8.75;100.00;100695.28;6156189;23;20068;-77
2023/12/24 02:24:48;;;;;;;10.70;5.60;;;;;;;8.86;100.00;100713.53;6155823;23;20010;-77
2023/12/24 02:27:26;;;;;;;9.88;5.70;;;;;;;8.73;100.00;100697.13;6156002;23;20450;-77
2023/12/24 02:29:58;;;;;;;12.75;5.88;;;;;;;8.53;100.00;100660.47;6155828;23;20374;-76
2023/12/24 02:32:25;;;;;;;11.27;6.63;;;;;;;8.80;100.00;100699.25;6153964;23;20317;-78
2023/12/24 02:34:51;;;;;;;11.93;6.40;;;;;;;8.76;100.00;100700.38;6156282;23;20488;-79
2023/12/24 02:37:17;;;;;;;12.80;6.55;;;;;;;8.55;100.00;100668.09;6155882;23;20431;-77
2023/12/24 02:39:42;;;;;;;12.98;7.00;;;;;;;8.58;100.00;100660.22;6155822;23;20006;-77
2023/12/24 02:42:08;;;;;;;13.30;7.65;;;;;;;8.52;100.00;100655.41;6156097;23;20008;-77
2023/12/24 02:44:35;;;;;;;9.73;7.20;;;;;;;8.65;100.00;100683.84;6129747;23;20009;-82
2023/12/24 02:47:00;;;;;;;12.05;7.10;;;;;;;8.61;100.00;100673.75;6129528;23;20013;-82
2023/12/24 02:49:26;;;;;;;11.98;7.85;;;;;;;8.56;100.00;100652.59;6155945;23;20016;-82
2023/12/24 02:51:51;;;;;;;14.43;7.38;;;;;;;8.63;100.00;100660.78;6156008;23;20371;-77
2023/12/24 02:54:17;;;;;;;10.90;7.20;;;;;;;8.61;100.00;100662.63;6155280;23;20013;-83
2023/12/24 02:56:42;;;;;;;12.95;7.13;;;;;;;8.53;100.00;100654.50;6155900;23;20006;-77
2023/12/24 02:59:07;;;;;;;11.35;6.93;;;;;;;8.60;100.00;100671.25;6156044;23;20001;-76
2023/12/24 03:01:33;;;;;;;11.75;6.88;;;;;;;8.42;100.00;100644.81;6155559;23;20010;-81
2023/12/24 03:03:59;;;;;;;11.52;6.82;;;;;;;8.43;100.00;100643.91;6156352;23;20048;-82
2023/12/24 03:06:24;;;;;;;10.15;6.55;;;;;;;8.64;100.00;100662.44;6155453;23;20062;-78
2023/12/24 03:08:50;;;;;;;11.90;6.50;;;;;;;8.49;100.00;100637.59;6156067;23;20005;-76
2023/12/24 03:11:15;;;;;;;9.63;6.35;;;;;;;8.61;100.00;100649.75;6155660;23;20051;-79
2023/12/24 03:13:40;;;;;;;11.02;7.13;;;;;;;8.46;100.00;100625.72;6156011;23;20051;-76
2023/12/24 03:16:06;;;;;;;10.77;6.40;;;;;;;8.53;100.00;100631.34;6153734;23;20009;-77
2023/12/24 03:18:32;;;;;;;14.27;6.90;;;;;;;8.57;100.00;100633.66;6155805;23;20002;-76
2023/12/24 03:20:57;;;;;;;10.20;6.18;;;;;;;8.41;100.00;100604.56;6155557;23;20331;-82
2023/12/24 03:23:22;;;;;;;10.05;6.38;;;;;;;8.51;100.00;100617.75;6155930;23;20336;-77
2023/12/24 03:25:48;;;;;;;9.18;6.15;;;;;;;8.32;100.00;100589.63;6155695;23;20009;-77
2023/12/24 03:28:13;;;;;;;10.48;6.22;;;;;;;8.55;100.00;100616.63;6155679;23;20001;-80
2023/12/24 03:30:38;;;;;;;10.63;6.22;;;;;;;8.15;100.00;100548.59;6155449;23;20055;-77
2023/12/24 03:33:04;;;;;;;8.90;5.50;;;;;;;8.55;100.00;100608.91;6155695;23;20033;-77
2023/12/24 03:35:29;;;;;;;8.57;4.97;;;;;;;8.49;100.00;100601.56;6155825;23;20029;-78
2023/12/24 03:37:54;;;;;;;9.32;4.45;;;;;;;8.57;100.00;100612.25;6155686;23;20423;-77
2023/12/24 03:40:20;;;;;;;6.97;4.00;;;;;;;8.57;100.00;100605.34;6155400;23;20049;-77
2023/12/24 03:42:45;;;;;;;6.70;4.00;;;;;;;8.43;100.00;100581.31;6155761;23;20333;-78
2023/12/24 03:45:10;;;;;;;7.68;3.78;;;;;;;8.54;100.00;100595.22;6153476;23;20420;-78
2023/12/24 03:47:36;;;;;;;6.82;3.90;;;;;;;8.61;100.00;100588.81;6155282;23;20009;-76
2023/12/24 03:50:01;;;;;;;6.28;3.47;;;;;;;8.62;100.00;100579.34;6155409;23;20382;-77
2023/12/24 03:52:27;;;;;;;6.97;3.83;;;;;;;8.56;100.00;100570.25;6155656;23;20021;-77
2023/12/24 03:54:52;;;;;;;7.00;3.80;;;;;;;8.61;100.00;100585.41;6155083;23;20017;-77
2023/12/24 03:57:18;;;;;;;5.47;3.53;;;;;;;8.63;100.00;100586.97;6155658;23;20037;-77
2023/12/24 03:59:43;;;;;;;7.78;4.00;;;;;;;8.64;100.00;100585.22;6155447;23;20028;-77
2023/12/24 04:02:09;;;;;;;6.57;3.22;;;;;;;8.50;100.00;100570.59;6155384;23;20495;-77
2023/12/24 04:04:34;;;;;;;6.35;3.33;;;;;;;8.45;100.00;100552.00;6155243;23;20002;-77
2023/12/24 04:07:00;;;;;;;7.28;3.42;;;;;;;8.67;100.00;100582.47;6155426;23;20005;-78
2023/12/24 04:09:25;;;;;;;4.65;3.13;;;;;;;8.45;100.00;100541.72;6155566;23;20005;-78
2023/12/24 04:11:51;;;;;;;5.47;2.97;;;;;;;8.53;100.00;100557.53;6155247;23;20028;-80
2023/12/24 04:14:16;;;;;;;4.20;2.70;;;;;;;8.70;100.00;100586.59;6155242;23;20033;-78
2023/12/24 04:16:42;;;;;;;5.65;2.90;;;;;;;8.69;100.00;100585.78;6154975;23;19998;-77
2023/12/24 04:19:07;;;;;;;5.47;2.70;;;;;;;8.48;100.00;100533.81;6155208;23;20384;-76
2023/12/24 04:21:33;;;;;;;5.57;2.72;;;;;;;8.71;100.00;100565.91;6155557;23;20006;-76
2023/12/24 04:23:59;;;;;;;4.78;2.63;;;;;;;8.67;100.00;100566.22;6155706;23;20427;-77
2023/12/24 04:26:25;;;;;;;4.93;2.55;;;;;;;8.60;100.00;100545.97;6155465;23;20063;-76
2023/12/24 04:28:51;;;;;;;5.55;2.90;;;;;;;8.42;100.00;100515.34;6155425;23;20033;-77
2023/12/24 04:31:17;;;;;;;4.72;2.13;;;;;;;8.72;100.00;100570.16;6154732;23;20010;-77
2023/12/24 04:33:42;;;;;;;5.32;2.90;;;;;;;8.73;100.00;100569.22;6155392;23;20012;-76
2023/12/24 04:36:08;;;;;;;4.70;2.42;;;;;;;8.66;100.00;100557.66;6155064;23;20085;-76
2023/12/24 04:38:33;;;;;;;5.68;3.03;;;;;;;8.76;100.00;100575.97;6155396;23;20001;-77
2023/12/24 04:40:59;;;;;;;5.30;2.80;;;;;;;8.71;100.00;100558.19;6154966;23;20024;-78
2023/12/24 04:43:25;;;;;;;3.85;2.33;;;;;;;8.79;100.00;100563.72;6155377;23;20412;-77
2023/12/24 04:45:50;;;;;;;4.00;2.53;;;;;;;8.80;100.00;100562.81;6155188;23;20083;-75
2023/12/24 04:48:15;;;;;;;4.72;2.60;;;;;;;8.69;100.00;100546.34;6154935;23;20009;-77
2023/12/24 04:50:41;;;;;;;5.03;2.70;;;;;;;8.82;100.00;100565.28;6128762;23;20013;-76
2023/12/24 04:53:06;;;;;;;3.95;2.13;;;;;;;8.78;100.00;100559.50;6128456;23;20016;-76
2023/12/24 04:55:31;;;;;;;4.22;2.53;;;;;;;8.84;100.00;100571.97;6154881;23;20098;-76
2023/12/24 04:57:57;;;;;;;3.85;2.30;;;;;;;8.73;100.00;100546.06;6155088;23;20002;-75
2023/12/24 05:00:22;;;;;;;3.58;2.28;;;;;;;8.86;100.00;100559.03;6155015;23;20041;-75
2023/12/24 05:02:48;;;;;;;3.80;2.25;;;;;;;8.87;100.00;100548.66;6155144;23;20031;-76
2023/12/24 05:05:14;;;;;;;4.18;2.50;;;;;;;8.73;100.00;100530.59;6155220;23;20088;-76
2023/12/24 05:07:39;;;;;;;4.82;2.65;;;;;;;8.90;100.00;100556.19;6155145;23;20006;-76
2023/12/24 05:10:06;;;;;;;3.72;2.50;;;;;;;8.91;100.00;100554.44;6155631;23;20093;-77
2023/12/24 05:12:33;;;;;;;3.00;2.05;;;;;;;8.83;100.00;100538.59;6156965;23;20005;-76
2023/12/24 05:15:02;;;;;;;4.10;2.67;;;;;;;8.91;100.00;100550.09;6157270;23;20036;-77
2023/12/24 05:17:27;;;;;;;3.60;2.35;;;;;;;8.93;100.00;100552.59;6156865;23;20012;-76
2023/12/24 05:19:52;;;;;;;3.35;2.20;;;;;;;8.94;100.00;100553.41;6156842;23;20458;-77
2023/12/24 05:22:18;;;;;;;3.85;2.50;;;;;;;8.95;100.00;100534.47;6157120;23;20002;-76
2023/12/24 05:24:43;;;;;;;3.65;2.33;;;;;;;8.94;100.00;100532.81;6156736;23;20004;-76
2023/12/24 05:27:08;;;;;;;3.70;2.35;;;;;;;8.96;100.00;100541.28;6156383;23;20005;-76
2023/12/24 05:29:34;;;;;;;3.50;2.30;;;;;;;8.87;100.00;100528.03;6130028;23;20062;-76
2023/12/24 05:31:59;;;;;;;3.42;2.30;;;;;;;8.92;100.00;100535.47;6156638;23;20416;-77
2023/12/24 05:34:25;;;;;;;5.03;2.92;;;;;;;8.78;100.00;100518.31;6156741;23;20001;-77
2023/12/24 05:36:50;;;;;;;3.67;2.50;;;;;;;8.85;100.00;100514.44;6156599;23;19997;-76
2023/12/24 05:39:15;;;;;;;4.00;2.50;;;;;;;8.99;100.00;100529.03;6156434;23;20021;-77
2023/12/24 05:41:44;;;;;;;4.22;2.90;;;;;;;8.84;100.00;100506.78;6156653;23;20056;-77
2023/12/24 05:44:10;;;;;;;4.75;3.17;;;;;;;9.01;100.00;100532.34;6156490;23;19993;-77
2023/12/24 05:46:37;;;;;;;4.63;3.30;;;;;;;9.05;100.00;100530.44;6156782;23;20008;-76
2023/12/24 05:49:02;;;;;;;5.50;3.60;;;;;;;8.93;100.00;100513.13;6154889;23;20036;-76
2023/12/24 05:51:27;;;;;;;5.78;3.88;;;;;;;9.07;100.00;100538.88;6156352;23;20002;-76
2023/12/24 05:53:53;;;;;;;5.30;3.63;;;;;;;9.07;100.00;100538.88;6156371;23;20017;-77
2023/12/24 05:56:18;;;;;;;6.05;3.80;;;;;;;9.04;100.00;100524.41;6156547;23;20332;-78
2023/12/24 05:58:43;;;;;;;6.05;4.07;;;;;;;9.09;100.00;100516.44;6156639;23;20028;-79
2023/12/24 06:01:09;;;;;;;7.38;4.15;;;;;;;9.03;100.00;100512.47;6156721;23;20005;-77
2023/12/24 06:03:34;;;;;;;6.38;4.35;;;;;;;9.10;100.00;100524.06;6156603;23;20002;-77
2023/12/24 06:05:59;;;;;;;5.55;4.15;;;;;;;9.11;100.00;100514.56;6156843;23;20017;-78
2023/12/24 06:08:25;;;;;;;6.20;4.10;;;;;;;9.04;100.00;100506.41;6156210;23;20005;-77
2023/12/24 06:10:50;;;;;;;6.10;4.18;;;;;;;8.94;100.00;100491.59;6156221;23;20395;-77
2023/12/24 06:13:15;;;;;;;6.18;3.88;;;;;;;9.15;100.00;100523.78;6156540;23;19997;-77
2023/12/24 06:15:41;;;;;;;5.40;3.72;;;;;;;9.18;100.00;100527.00;6156373;23;20001;-77
2023/12/24 06:18:06;;;;;;;6.28;4.07;;;;;;;9.09;100.00;100506.13;6156477;23;20001;-78
2023/12/24 06:20:32;;;;;;;6.18;4.07;;;;;;;9.03;100.00;100502.16;6156460;23;20092;-77
2023/12/24 06:22:58;;;;;;;5.20;3.40;;;;;;;8.97;100.00;100487.09;6155283;23;20002;-77
2023/12/24 06:25:24;;;;;;;5.75;3.75;;;;;;;9.19;100.00;100514.94;6156504;23;20332;-76
2023/12/24 06:27:49;;;;;;;5.35;3.55;;;;;;;9.06;100.00;100490.88;6156473;23;20010;-77
2023/12/24 06:30:15;;;;;;;5.72;3.90;;;;;;;9.19;100.00;100509.78;6156415;23;20016;-77
2023/12/24 06:32:45;;;;;;;4.65;3.15;;;;;;;9.20;100.00;100514.00;6156150;23;20043;-78
2023/12/24 06:35:10;;;;;;;5.05;3.53;;;;;;;9.19;100.00;100508.03;6155918;23;20324;-77
2023/12/24 06:37:35;;;;;;;5.70;3.33;;;;;;;9.20;100.00;100507.09;6156221;23;20076;-77
2023/12/24 06:40:01;;;;;;;5.05;3.53;;;;;;;9.22;100.00;100506.19;6156478;23;20005;-77
2023/12/24 06:42:26;;;;;;;5.07;3.40;;;;;;;9.22;100.00;100512.16;6156105;23;20120;-77
2023/12/24 06:44:51;;;;;;;6.00;3.30;;;;;;;9.10;100.00;100488.00;6155931;23;20001;-78
2023/12/24 06:47:17;;;;;;;4.93;3.05;;;;;;;9.10;100.00;100476.88;6129365;23;20317;-77
2023/12/24 06:49:44;;;;;;;5.80;3.30;;;;;;;9.26;100.00;100499.94;6155864;23;20006;-77
2023/12/24 06:52:10;;;;;;;6.15;3.42;;;;;;;9.27;100.00;100507.56;6156042;23;20017;-78
2023/12/24 06:54:36;;;;;;;5.32;3.50;;;;;;;9.23;100.00;100500.94;6155733;23;20009;-78
2023/12/24 06:57:01;;;;;;;5.60;3.70;;;;;;;9.30;100.00;100498.81;6155929;23;20001;-80
2023/12/24 06:59:26;;;;;;;6.15;3.90;;;;;;;9.18;100.00;100488.34;6155906;23;20006;-79
2023/12/24 07:01:52;;;;;;;6.20;4.25;;;;;;;9.32;100.00;100504.69;6155860;23;20016;-78
2023/12/24 07:04:17;;;;;;;6.35;4.25;;;;;;;9.17;100.00;100481.53;6156076;23;20005;-81
2023/12/24 07:06:42;;;;;;;5.65;4.18;;;;;;;9.31;100.00;100501.28;6156142;23;20024;-80
2023/12/24 07:09:08;;;;;;;6.55;4.30;;;;;;;9.28;100.00;100496.34;6155767;23;20045;-79
2023/12/24 07:11:33;;;;;;;6.53;4.43;;;;;;;9.36;100.00;100517.28;6155836;23;20037;-79
2023/12/24 07:13:58;;;;;;;7.05;5.00;;;;;;;9.32;100.00;100496.94;6155733;23;20005;-80
2023/12/24 07:16:23;;;;;;;7.68;5.18;;;;;;;9.38;100.00;100515.44;6156005;23;20005;-79
2023/12/24 07:18:49;;;;;;;7.15;5.18;;;;;;;9.30;100.00;100498.81;6155194;23;20205;-79
2023/12/24 07:21:14;;;;;;;7.78;5.53;;;;;;;9.35;100.00;100509.66;6155786;23;20006;-80
2023/12/24 07:23:41;;;;;;;7.55;5.32;;;;;;;9.13;100.00;100466.34;6155755;23;20005;-80
2023/12/24 07:26:07;;;;;;;7.13;5.20;;;;;;;9.41;100.00;100507.50;6156100;23;20001;-79
2023/12/24 07:28:32;;;;;;;7.20;5.15;;;;;;;9.43;100.00;100512.56;6155895;23;20029;-78
2023/12/24 07:30:58;;;;;;;8.38;5.38;;;;;;;9.43;100.00;100504.81;6155790;23;20349;-79
2023/12/24 07:33:23;;;;;;;8.43;6.20;;;;;;;9.08;100.00;100448.63;6155468;23;20037;-80
2023/12/24 07:35:49;;;;;;;8.70;5.78;;;;;;;9.34;100.00;100490.81;6154490;23;20487;-80
2023/12/24 07:38:14;;;;;;;8.00;5.75;;;;;;;9.44;100.00;100507.34;6156494;23;20043;-80
2023/12/24 07:40:40;;;;;;;7.60;5.15;;;;;;;9.45;100.00;100498.69;6155480;23;20340;-79
2023/12/24 07:43:05;;;;;;;7.53;5.13;;;;;;;9.48;100.00;100507.97;6155569;23;20008;-79
2023/12/24 07:45:30;;;;;;;7.13;5.10;;;;;;;9.48;100.00;100503.63;6155309;23;20040;-78
2023/12/24 07:47:56;;;;;;;7.70;4.97;;;;;;;9.50;100.00;100513.84;6155068;23;20036;-78
2023/12/24 07:50:22;;;;;;;7.20;5.32;;;;;;;9.44;100.00;100497.03;6155090;23;20036;-80
2023/12/24 07:52:48;;;;;;;9.25;5.90;;;;;;;9.51;100.00;100509.50;6155354;23;20005;-81
2023/12/24 07:55:16;;;;;;;8.50;6.10;;;;;;;9.20;100.00;100449.59;6129494;23;20021;-79
2023/12/24 07:57:41;;;;;;;7.60;5.47;;;;;;;9.53;100.00;100505.06;6155254;23;20105;-77
2023/12/24 08:00:07;;;;;;;7.85;6.13;;;;;;;9.53;100.00;100493.00;6155129;23;20446;-73
2023/12/24 08:02:33;;;;;;;7.47;5.60;;;;;;;9.54;100.00;100486.97;6155196;23;20005;-74
2023/12/24 08:04:59;;;;;;;8.50;5.82;;;;;;;9.56;100.00;100497.16;6154927;23;20040;-76
2023/12/24 08:07:24;;;;;;;8.07;6.00;;;;;;;9.45;100.00;100480.63;6154935;23;20092;-76
2023/12/24 08:09:49;;;;;;;7.43;5.28;;;;;;;9.55;100.00;100492.94;6155389;23;20014;-73
2023/12/24 08:12:16;;;;;;;8.82;5.90;;;;;;;9.55;100.00;100493.75;6155563;23;20040;-75
2023/12/24 08:14:41;;;;;;;8.13;5.25;;;;;;;9.42;100.00;100485.97;6155203;23;20415;-74
2023/12/24 08:17:07;;;;;;;7.53;5.13;;;;;;;9.53;100.00;100490.44;6154713;23;20001;-74
2023/12/24 08:19:32;;;;;;;8.00;5.28;;;;;;;9.26;100.00;100449.22;6154809;23;20321;-73
2023/12/24 08:21:58;;;;;;;7.68;5.35;;;;;;;9.59;100.00;100494.38;6154828;23;20006;-74
2023/12/24 08:24:23;;;;;;;6.68;4.40;;;;;;;9.61;100.00;100492.53;6154998;23;20001;-74
2023/12/24 08:26:48;;;;;;;8.15;4.90;;;;;;;9.57;100.00;100493.66;6154818;23;20010;-74
2023/12/24 08:29:14;;;;;;;6.88;4.53;;;;;;;9.39;100.00;100455.25;6154708;23;20009;-76
2023/12/24 08:31:39;;;;;;;6.07;4.05;;;;;;;9.58;100.00;100488.41;6154962;23;20016;-75
2023/12/24 08:34:04;;;;;;;6.75;3.78;;;;;;;9.48;100.00;100464.13;6154796;23;20033;-74
2023/12/24 08:36:30;;;;;;;5.35;3.50;;;;;;;9.60;100.00;100481.38;6155222;23;20014;-74
2023/12/24 08:38:55;;;;;;;5.57;3.70;;;;;;;9.63;100.00;100490.66;6153079;23;20328;-73
2023/12/24 08:41:20;;;;;;;6.07;3.60;;;;;;;9.58;100.00;100479.84;6129600;23;20005;-75
2023/12/24 08:43:46;;;;;;;5.38;3.45;;;;;;;9.62;100.00;100484.69;6155236;23;20092;-80
2023/12/24 08:46:11;;;;;;;5.97;3.83;;;;;;;9.53;100.00;100469.81;6129545;23;20427;-79
2023/12/24 08:48:37;;;;;;;6.50;3.60;;;;;;;9.46;100.00;100453.94;6156738;23;20037;-76
2023/12/24 08:51:03;;;;;;;4.82;3.13;;;;;;;9.59;100.00;100466.84;6156983;23;20012;-77
2023/12/24 08:53:29;;;;;;;5.53;3.30;;;;;;;9.68;100.00;100483.47;6156738;23;20008;-81
2023/12/24 08:55:54;;;;;;;5.45;3.78;;;;;;;9.64;100.00;100482.03;6156638;23;20321;-82
2023/12/24 08:58:19;;;;;;;7.28;4.32;;;;;;;9.69;100.00;100483.38;6156524;23;20009;-80
2023/12/24 09:00:45;;;;;;;6.78;4.13;;;;;;;9.69;100.00;100488.53;6156749;23;20013;-75
2023/12/24 09:03:10;;;;;;;6.78;3.90;;;;;;;9.73;100.00;100489.16;6156994;23;20001;-76
2023/12/24 09:05:35;;;;;;;6.13;3.90;;;;;;;9.74;100.00;100511.47;6156373;23;20064;-83
2023/12/24 09:08:01;;;;;;;5.88;3.58;;;;;;;9.76;100.00;100502.69;6156760;23;20016;-75
2023/12/24 09:10:26;;;;;;;6.07;3.92;;;;;;;9.72;100.00;100505.53;6156408;23;19998;-76
2023/12/24 09:12:51;;;;;;;6.18;3.72;;;;;;;9.77;100.00;100506.91;6128929;23;20005;-81
2023/12/24 09:15:17;;;;;;;5.85;4.10;;;;;;;9.81;100.00;100517.03;6156479;23;20005;-84
2023/12/24 09:17:43;;;;;;;5.85;3.63;;;;;;;9.81;100.00;100504.97;6156799;23;20001;-82
2023/12/24 09:20:09;;;;;;;4.95;3.30;;;;;;;9.83;100.00;100510.00;6156368;23;20041;-79
2023/12/24 09:22:34;;;;;;;4.85;3.30;;;;;;;9.49;100.00;100438.25;6156337;23;20009;-83
2023/12/24 09:24:59;;;;;;;5.03;3.40;;;;;;;9.78;100.00;100480.19;6156528;23;20037;-84
2023/12/24 09:27:25;;;;;;;5.00;3.53;;;;;;;9.87;100.00;100493.44;6156792;23;20084;-81
2023/12/24 09:29:50;;;;;;;5.88;3.40;;;;;;;9.61;100.00;100444.38;6156407;23;20025;-79
2023/12/24 09:32:15;;;;;;;5.75;3.88;;;;;;;9.89;100.00;100476.91;6130365;23;20025;-81
2023/12/24 09:34:41;;;;;;;5.30;3.60;;;;;;;9.84;100.00;100471.25;6156282;23;20443;-82
2023/12/24 09:37:06;;;;;;;6.00;3.70;;;;;;;9.91;100.00;100476.81;6156120;23;20001;-81
2023/12/24 09:39:31;;;;;;;5.38;3.10;;;;;;;9.25;100.00;100382.34;6129406;23;20005;-83
2023/12/24 09:41:57;;;;;;;5.35;3.50;;;;;;;9.84;100.00;100467.84;6156420;23;20006;-80
2023/12/24 09:44:23;;;;;;;4.85;3.40;;;;;;;9.90;100.00;100488.88;6156124;23;19997;-83
2023/12/24 09:46:49;;;;;;;4.88;3.25;;;;;;;9.81;100.00;100479.16;6156604;23;20412;-81
2023/12/24 09:49:14;;;;;;;5.97;3.60;;;;;;;9.88;100.00;100482.19;6156291;23;20008;-79
2023/12/24 09:51:42;;;;;;;6.10;3.67;;;;;;;9.63;100.00;100439.94;6156273;23;20076;-83
2023/12/24 09:54:07;;;;;;;7.28;4.60;;;;;;;9.96;100.00;100483.34;6156330;23;20325;-81
2023/12/24 09:56:33;;;;;;;6.90;4.20;;;;;;;9.97;100.00;100484.97;6156401;23;20332;-80
2023/12/24 09:58:59;;;;;;;7.30;4.60;;;;;;;9.98;100.00;100478.91;6156155;23;20002;-79
2023/12/24 10:01:24;;;;;;;9.75;5.35;;;;;;;10.00;100.00;100479.63;6156180;23;20001;-80
2023/12/24 10:03:49;;;;;;;10.70;5.63;;;;;;;9.92;100.00;100466.38;6155985;23;20016;-82
2023/12/24 10:06:15;;;;;;;10.65;6.85;;;;;;;10.06;100.00;100494.69;6155684;23;20005;-81
2023/12/24 10:08:40;;;;;;;14.18;7.70;;;;;;;10.09;100.00;100491.09;6155778;23;20001;-80
2023/12/24 10:11:25;;;;;;;16.23;9.40;;;;;;;10.12;100.00;100480.53;6155893;23;20001;-81
2023/12/24 10:13:59;;;;;;;19.67;10.30;;;;;;;10.13;100.00;100492.56;6156040;23;20005;-80
2023/12/24 10:16:48;;;;;;;23.27;12.55;;;;;;;9.83;100.00;100441.19;6156065;23;20424;-81
2023/12/24 10:19:40;;;;;;;20.20;12.57;;;;;;;10.20;100.00;100498.94;6155331;23;20044;-82
2023/12/24 10:22:08;;;;;;;22.08;13.02;;;;;;;10.23;100.00;100485.06;6155534;23;20001;-85
2023/12/24 10:24:38;;;;;;;28.17;14.82;;;;;;;10.19;100.00;100460.34;6156341;23;20072;-85
2023/12/24 10:27:04;;;;;;;28.58;15.38;;;;;;;10.31;100.00;100487.91;6156072;23;19997;-88
2023/12/24 10:29:34;;;;;;;29.80;15.63;;;;;;;10.33;100.00;100478.34;6157979;23;20312;-90
2023/12/24 10:31:59;;;;;;;29.33;16.95;;;;;;;10.36;100.00;100469.56;6130154;23;20060;-87
2023/12/24 10:34:27;;;;;;;26.25;16.30;;;;;;;10.39;100.00;100465.00;6130777;23;20009;-78
2023/12/24 10:36:52;;;;;;;29.08;17.75;;;;;;;10.41;100.00;100467.47;6155644;23;20002;-84
2023/12/24 10:39:24;;;;;;;33.08;18.63;;;;;;;10.43;100.00;100461.31;6156281;23;20012;-81
2023/12/24 10:41:54;;;;;;;30.10;18.52;;;;;;;10.45;100.00;100456.84;6156796;23;20002;-84
2023/12/24 10:44:21;;;;;;;37.00;19.73;;;;;;;10.48;100.00;100442.91;6156158;23;20008;-88
2023/12/24 10:46:47;;;;;;;31.85;19.45;;;;;;;10.53;100.00;100454.59;6156294;23;20109;-80
2023/12/24 10:49:12;;;;;;;36.00;21.60;;;;;;;10.55;100.00;100454.47;6129308;23;20148;-84
2023/12/24 10:51:39;;;;;;;36.15;20.10;;;;;;;10.38;100.00;100426.41;6155878;23;20420;-84
2023/12/24 10:54:06;;;;;;;33.67;21.58;;;;;;;10.57;100.00;100456.00;6156344;23;20313;-82
2023/12/24 10:56:43;;;;;;;33.92;22.73;;;;;;;10.48;100.00;100433.41;6156008;23;20056;-83
2023/12/24 10:59:53;;;;;;;31.05;21.58;;;;;;;10.59;100.00;100445.56;6156186;23;20059;-83
2023/12/24 11:02:19;;;;;;;32.00;21.13;;;;;;;10.54;100.00;100429.59;6155974;23;20009;-81
2023/12/24 11:04:45;;;;;;;29.77;18.75;;;;;;;10.53;100.00;100417.59;6155594;23;20001;-80
2023/12/24 11:07:32;;;;;;;28.67;19.08;;;;;;;10.62;100.00;100430.72;6155732;23;20077;-77
2023/12/24 11:09:59;;;;;;;31.48;17.45;;;;;;;10.63;100.00;100427.19;6130110;23;20006;-80
2023/12/24 11:12:35;;;;;;;22.30;15.40;;;;;;;10.63;100.00;100432.34;6155961;23;20028;-85
2023/12/24 11:15:02;;;;;;;20.92;13.63;;;;;;;10.65;100.00;100424.50;6130031;23;20009;-80
2023/12/24 11:17:33;;;;;;;24.40;12.70;;;;;;;10.65;100.00;100427.09;6155962;23;20002;-81